sensor_id;sensor_type;location;lat;lon;timestamp;temperature;humidity
63371;DHT22;72561;48.336;14.472;2023-11-19T00:05:46;25.70;49.30
63371;DHT22;72561;48.336;14.472;2023-11-19T00:09:07;25.60;49.70
63371;DHT22;72561;48.336;14.472;2023-11-19T00:12:28;25.60;49.70
63371;DHT22;72561;48.336;14.472;2023-11-19T00:15:50;25.60;49.70
63371;DHT22;72561;48.336;14.472;2023-11-19T00:19:11;25.60;49.70
63371;DHT22;72561;48.336;14.472;2023-11-19T00:22:33;25.60;49.70
63371;DHT22;72561;48.336;14.472;2023-11-19T00:25:54;25.60;49.70
63371;DHT22;72561;48.336;14.472;2023-11-19T00:29:16;25.60;49.70
63371;DHT22;72561;48.336;14.472;2023-11-19T00:32:37;25.60;49.70
63371;DHT22;72561;48.336;14.472;2023-11-19T00:35:58;25.60;49.70
63371;DHT22;72561;48.336;14.472;2023-11-19T00:39:20;25.60;49.70
63371;DHT22;72561;48.336;14.472;2023-11-19T00:42:42;25.60;49.70
63371;DHT22;72561;48.336;14.472;2023-11-19T00:46:03;25.60;49.70
63371;DHT22;72561;48.336;14.472;2023-11-19T00:49:25;25.60;49.70
63371;DHT22;72561;48.336;14.472;2023-11-19T00:52:46;25.60;49.70
63371;DHT22;72561;48.336;14.472;2023-11-19T00:56:11;25.60;49.70
63371;DHT22;72561;48.336;14.472;2023-11-19T00:59:32;25.60;49.70
63371;DHT22;72561;48.336;14.472;2023-11-19T01:02:53;25.60;49.70
63371;DHT22;72561;48.336;14.472;2023-11-19T01:06:14;25.70;49.80
63371;DHT22;72561;48.336;14.472;2023-11-19T01:13:02;25.60;49.20
63371;DHT22;72561;48.336;14.472;2023-11-19T01:16:23;25.60;49.80
63371;DHT22;72561;48.336;14.472;2023-11-19T01:20:52;25.60;49.20
63371;DHT22;72561;48.336;14.472;2023-11-19T01:24:13;25.60;49.80
63371;DHT22;72561;48.336;14.472;2023-11-19T01:27:34;25.60;49.80
63371;DHT22;72561;48.336;14.472;2023-11-19T01:30:55;25.60;49.70
63371;DHT22;72561;48.336;14.472;2023-11-19T01:34:16;25.60;49.70
63371;DHT22;72561;48.336;14.472;2023-11-19T01:37:39;25.60;49.70
63371;DHT22;72561;48.336;14.472;2023-11-19T01:41:00;25.60;49.70
63371;DHT22;72561;48.336;14.472;2023-11-19T01:44:21;25.60;49.70
63371;DHT22;72561;48.336;14.472;2023-11-19T01:47:42;25.60;49.70
63371;DHT22;72561;48.336;14.472;2023-11-19T01:51:04;25.60;49.80
63371;DHT22;72561;48.336;14.472;2023-11-19T01:57:25;25.60;49.20
63371;DHT22;72561;48.336;14.472;2023-11-19T02:00:47;25.60;49.80
63371;DHT22;72561;48.336;14.472;2023-11-19T02:04:08;25.60;49.80
63371;DHT22;72561;48.336;14.472;2023-11-19T02:07:30;25.60;49.70
63371;DHT22;72561;48.336;14.472;2023-11-19T02:13:02;25.60;49.20
63371;DHT22;72561;48.336;14.472;2023-11-19T02:16:23;25.60;49.80
63371;DHT22;72561;48.336;14.472;2023-11-19T02:19:44;25.60;49.80
63371;DHT22;72561;48.336;14.472;2023-11-19T02:23:05;25.60;49.80
63371;DHT22;72561;48.336;14.472;2023-11-19T02:26:30;25.60;49.70
63371;DHT22;72561;48.336;14.472;2023-11-19T02:29:55;25.60;49.80
63371;DHT22;72561;48.336;14.472;2023-11-19T02:33:16;25.60;49.80
63371;DHT22;72561;48.336;14.472;2023-11-19T02:36:37;25.50;49.70
63371;DHT22;72561;48.336;14.472;2023-11-19T02:39:58;25.60;49.80
63371;DHT22;72561;48.336;14.472;2023-11-19T02:43:20;25.50;49.70
63371;DHT22;72561;48.336;14.472;2023-11-19T02:46:42;25.60;49.80
63371;DHT22;72561;48.336;14.472;2023-11-19T02:50:04;25.60;49.80
63371;DHT22;72561;48.336;14.472;2023-11-19T02:53:25;25.60;49.80
63371;DHT22;72561;48.336;14.472;2023-11-19T02:56:46;25.50;49.70
63371;DHT22;72561;48.336;14.472;2023-11-19T03:03:20;25.60;49.20
63371;DHT22;72561;48.336;14.472;2023-11-19T03:06:41;25.60;49.80
63371;DHT22;72561;48.336;14.472;2023-11-19T03:10:02;25.50;49.80
63371;DHT22;72561;48.336;14.472;2023-11-19T03:13:24;25.60;49.80
63371;DHT22;72561;48.336;14.472;2023-11-19T03:16:45;25.50;49.80
63371;DHT22;72561;48.336;14.472;2023-11-19T03:20:09;25.60;49.80
63371;DHT22;72561;48.336;14.472;2023-11-19T03:23:31;25.60;49.70
63371;DHT22;72561;48.336;14.472;2023-11-19T03:26:52;25.50;49.70
63371;DHT22;72561;48.336;14.472;2023-11-19T03:30:13;25.60;49.80
63371;DHT22;72561;48.336;14.472;2023-11-19T03:33:35;25.50;49.70
63371;DHT22;72561;48.336;14.472;2023-11-19T03:36:57;25.50;49.80
63371;DHT22;72561;48.336;14.472;2023-11-19T03:40:19;25.50;49.70
63371;DHT22;72561;48.336;14.472;2023-11-19T03:43:40;25.60;49.80
63371;DHT22;72561;48.336;14.472;2023-11-19T03:47:01;25.50;49.70
63371;DHT22;72561;48.336;14.472;2023-11-19T03:50:23;25.60;49.80
63371;DHT22;72561;48.336;14.472;2023-11-19T03:53:45;25.50;49.70
63371;DHT22;72561;48.336;14.472;2023-11-19T03:57:06;25.60;49.80
63371;DHT22;72561;48.336;14.472;2023-11-19T04:00:52;25.60;49.30
63371;DHT22;72561;48.336;14.472;2023-11-19T04:04:13;25.50;49.70
63371;DHT22;72561;48.336;14.472;2023-11-19T04:07:34;25.50;49.60
63371;DHT22;72561;48.336;14.472;2023-11-19T04:10:55;25.60;49.70
63371;DHT22;72561;48.336;14.472;2023-11-19T04:14:16;25.50;49.60
63371;DHT22;72561;48.336;14.472;2023-11-19T04:17:39;25.60;49.60
63371;DHT22;72561;48.336;14.472;2023-11-19T04:21:00;25.60;49.60
63371;DHT22;72561;48.336;14.472;2023-11-19T04:24:21;25.50;49.50
63371;DHT22;72561;48.336;14.472;2023-11-19T04:27:42;25.50;49.50
63371;DHT22;72561;48.336;14.472;2023-11-19T04:31:04;25.60;49.60
63371;DHT22;72561;48.336;14.472;2023-11-19T04:34:26;25.50;49.50
63371;DHT22;72561;48.336;14.472;2023-11-19T04:37:47;25.60;49.60
63371;DHT22;72561;48.336;14.472;2023-11-19T04:41:09;25.50;49.50
63371;DHT22;72561;48.336;14.472;2023-11-19T04:44:30;25.60;49.60
63371;DHT22;72561;48.336;14.472;2023-11-19T04:47:51;25.50;49.50
63371;DHT22;72561;48.336;14.472;2023-11-19T04:54:11;25.60;49.10
63371;DHT22;72561;48.336;14.472;2023-11-19T04:57:32;25.50;49.60
63371;DHT22;72561;48.336;14.472;2023-11-19T05:00:53;25.60;49.60
63371;DHT22;72561;48.336;14.472;2023-11-19T05:04:14;25.60;49.60
63371;DHT22;72561;48.336;14.472;2023-11-19T05:07:36;25.60;49.70
63371;DHT22;72561;48.336;14.472;2023-11-19T05:10:59;25.50;49.70
63371;DHT22;72561;48.336;14.472;2023-11-19T05:14:21;25.50;49.80
63371;DHT22;72561;48.336;14.472;2023-11-19T05:17:42;25.50;49.60
63371;DHT22;72561;48.336;14.472;2023-11-19T05:21:03;25.60;49.80
63371;DHT22;72561;48.336;14.472;2023-11-19T05:24:25;25.50;49.50
63371;DHT22;72561;48.336;14.472;2023-11-19T05:27:47;25.50;49.40
63371;DHT22;72561;48.336;14.472;2023-11-19T05:31:11;25.60;49.50
63371;DHT22;72561;48.336;14.472;2023-11-19T05:34:32;25.50;49.40
63371;DHT22;72561;48.336;14.472;2023-11-19T05:37:53;25.50;49.40
63371;DHT22;72561;48.336;14.472;2023-11-19T05:41:18;25.50;49.40
63371;DHT22;72561;48.336;14.472;2023-11-19T05:44:40;25.50;49.40
63371;DHT22;72561;48.336;14.472;2023-11-19T05:48:02;25.50;49.40
63371;DHT22;72561;48.336;14.472;2023-11-19T05:51:23;25.50;49.40
63371;DHT22;72561;48.336;14.472;2023-11-19T05:54:45;25.50;49.40
63371;DHT22;72561;48.336;14.472;2023-11-19T05:58:06;25.50;49.40
63371;DHT22;72561;48.336;14.472;2023-11-19T06:01:28;25.50;49.40
63371;DHT22;72561;48.336;14.472;2023-11-19T06:05:50;25.50;48.80
63371;DHT22;72561;48.336;14.472;2023-11-19T06:09:11;25.50;49.40
63371;DHT22;72561;48.336;14.472;2023-11-19T06:12:33;25.50;49.40
63371;DHT22;72561;48.336;14.472;2023-11-19T06:17:06;25.50;48.90
63371;DHT22;72561;48.336;14.472;2023-11-19T06:20:30;25.50;49.30
63371;DHT22;72561;48.336;14.472;2023-11-19T06:23:51;25.50;49.40
63371;DHT22;72561;48.336;14.472;2023-11-19T06:27:12;25.50;49.20
63371;DHT22;72561;48.336;14.472;2023-11-19T06:30:33;25.50;49.20
63371;DHT22;72561;48.336;14.472;2023-11-19T06:33:56;25.50;49.20
63371;DHT22;72561;48.336;14.472;2023-11-19T06:37:17;25.50;49.20
63371;DHT22;72561;48.336;14.472;2023-11-19T06:40:38;25.50;49.20
63371;DHT22;72561;48.336;14.472;2023-11-19T06:43:59;25.50;49.20
63371;DHT22;72561;48.336;14.472;2023-11-19T06:47:20;25.50;49.20
63371;DHT22;72561;48.336;14.472;2023-11-19T06:50:43;25.50;49.20
63371;DHT22;72561;48.336;14.472;2023-11-19T06:54:04;25.50;49.20
63371;DHT22;72561;48.336;14.472;2023-11-19T06:57:25;25.50;49.90
63371;DHT22;72561;48.336;14.472;2023-11-19T07:00:47;25.50;49.20
63371;DHT22;72561;48.336;14.472;2023-11-19T07:04:08;25.50;49.20
63371;DHT22;72561;48.336;14.472;2023-11-19T07:07:32;25.50;49.10
63371;DHT22;72561;48.336;14.472;2023-11-19T07:10:54;25.50;49.20
63371;DHT22;72561;48.336;14.472;2023-11-19T07:14:15;25.50;49.10
63371;DHT22;72561;48.336;14.472;2023-11-19T07:17:36;25.50;49.00
63371;DHT22;72561;48.336;14.472;2023-11-19T07:20:59;25.50;49.00
63371;DHT22;72561;48.336;14.472;2023-11-19T07:24:22;25.50;49.00
63371;DHT22;72561;48.336;14.472;2023-11-19T07:27:43;25.50;49.00
63371;DHT22;72561;48.336;14.472;2023-11-19T07:31:04;25.50;49.10
63371;DHT22;72561;48.336;14.472;2023-11-19T07:34:26;25.50;49.10
63371;DHT22;72561;48.336;14.472;2023-11-19T07:37:47;25.50;49.10
63371;DHT22;72561;48.336;14.472;2023-11-19T07:41:09;25.50;49.10
63371;DHT22;72561;48.336;14.472;2023-11-19T07:44:30;25.50;49.00
63371;DHT22;72561;48.336;14.472;2023-11-19T07:47:52;25.50;49.00
63371;DHT22;72561;48.336;14.472;2023-11-19T07:51:13;25.50;49.10
63371;DHT22;72561;48.336;14.472;2023-11-19T07:54:34;25.50;49.20
63371;DHT22;72561;48.336;14.472;2023-11-19T07:57:57;25.50;49.20
63371;DHT22;72561;48.336;14.472;2023-11-19T08:01:18;25.50;49.20
63371;DHT22;72561;48.336;14.472;2023-11-19T08:04:39;25.50;49.20
63371;DHT22;72561;48.336;14.472;2023-11-19T08:08:00;25.50;49.20
63371;DHT22;72561;48.336;14.472;2023-11-19T08:11:22;25.50;49.10
63371;DHT22;72561;48.336;14.472;2023-11-19T08:14:45;25.50;49.20
63371;DHT22;72561;48.336;14.472;2023-11-19T08:18:06;25.50;49.20
63371;DHT22;72561;48.336;14.472;2023-11-19T08:21:27;25.50;49.20
63371;DHT22;72561;48.336;14.472;2023-11-19T08:24:48;25.50;49.20
63371;DHT22;72561;48.336;14.472;2023-11-19T08:28:09;25.50;49.30
63371;DHT22;72561;48.336;14.472;2023-11-19T08:33:15;25.50;48.80
63371;DHT22;72561;48.336;14.472;2023-11-19T08:36:37;25.50;49.40
63371;DHT22;72561;48.336;14.472;2023-11-19T08:39:59;25.40;49.40
63371;DHT22;72561;48.336;14.472;2023-11-19T08:47:48;25.50;48.90
63371;DHT22;72561;48.336;14.472;2023-11-19T08:51:09;25.40;49.50
63371;DHT22;72561;48.336;14.472;2023-11-19T08:54:30;25.40;49.60
63371;DHT22;72561;48.336;14.472;2023-11-19T08:57:51;25.40;49.60
63371;DHT22;72561;48.336;14.472;2023-11-19T09:01:14;25.50;49.70
63371;DHT22;72561;48.336;14.472;2023-11-19T09:06:22;25.50;49.10
63371;DHT22;72561;48.336;14.472;2023-11-19T09:09:44;25.40;49.80
63371;DHT22;72561;48.336;14.472;2023-11-19T09:13:05;25.40;50.10
63371;DHT22;72561;48.336;14.472;2023-11-19T09:16:26;25.40;50.20
63371;DHT22;72561;48.336;14.472;2023-11-19T09:19:47;25.50;50.40
63371;DHT22;72561;48.336;14.472;2023-11-19T09:23:12;25.40;50.00
63371;DHT22;72561;48.336;14.472;2023-11-19T09:26:34;25.50;50.50
63371;DHT22;72561;48.336;14.472;2023-11-19T09:29:56;25.50;50.90
63371;DHT22;72561;48.336;14.472;2023-11-19T09:33:21;25.50;50.20
63371;DHT22;72561;48.336;14.472;2023-11-19T09:36:42;25.50;50.40
63371;DHT22;72561;48.336;14.472;2023-11-19T09:40:30;25.40;50.20
63371;DHT22;72561;48.336;14.472;2023-11-19T09:43:53;25.50;50.50
63371;DHT22;72561;48.336;14.472;2023-11-19T09:47:20;25.50;50.40
63371;DHT22;72561;48.336;14.472;2023-11-19T09:50:42;25.50;50.50
63371;DHT22;72561;48.336;14.472;2023-11-19T09:54:14;25.50;50.40
63371;DHT22;72561;48.336;14.472;2023-11-19T09:57:43;25.50;50.50
63371;DHT22;72561;48.336;14.472;2023-11-19T10:01:12;25.50;50.50
63371;DHT22;72561;48.336;14.472;2023-11-19T10:04:35;25.40;50.20
63371;DHT22;72561;48.336;14.472;2023-11-19T10:07:57;25.50;50.30
63371;DHT22;72561;48.336;14.472;2023-11-19T10:12:27;25.50;49.60
63371;DHT22;72561;48.336;14.472;2023-11-19T10:17:57;25.50;49.70
63371;DHT22;72561;48.336;14.472;2023-11-19T10:21:18;25.50;50.40
63371;DHT22;72561;48.336;14.472;2023-11-19T10:24:40;25.50;50.40
63371;DHT22;72561;48.336;14.472;2023-11-19T10:28:02;25.50;50.40
63371;DHT22;72561;48.336;14.472;2023-11-19T10:31:24;25.50;50.40
63371;DHT22;72561;48.336;14.472;2023-11-19T10:34:46;25.50;50.40
63371;DHT22;72561;48.336;14.472;2023-11-19T10:38:16;25.50;50.40
63371;DHT22;72561;48.336;14.472;2023-11-19T10:41:38;25.50;50.40
63371;DHT22;72561;48.336;14.472;2023-11-19T10:44:59;25.50;50.50
63371;DHT22;72561;48.336;14.472;2023-11-19T10:48:20;25.50;50.40
63371;DHT22;72561;48.336;14.472;2023-11-19T10:51:46;25.50;50.40
63371;DHT22;72561;48.336;14.472;2023-11-19T10:55:15;25.50;50.40
63371;DHT22;72561;48.336;14.472;2023-11-19T10:58:44;25.50;50.50
63371;DHT22;72561;48.336;14.472;2023-11-19T11:02:10;25.50;50.40
63371;DHT22;72561;48.336;14.472;2023-11-19T11:05:35;25.50;50.40
63371;DHT22;72561;48.336;14.472;2023-11-19T11:08:58;25.50;50.40
63371;DHT22;72561;48.336;14.472;2023-11-19T11:12:22;25.50;50.40
63371;DHT22;72561;48.336;14.472;2023-11-19T11:15:44;25.50;50.50
63371;DHT22;72561;48.336;14.472;2023-11-19T11:19:06;25.50;50.40
63371;DHT22;72561;48.336;14.472;2023-11-19T11:22:28;25.50;50.40
63371;DHT22;72561;48.336;14.472;2023-11-19T11:26:23;25.50;51.10
63371;DHT22;72561;48.336;14.472;2023-11-19T11:30:00;25.50;50.40
63371;DHT22;72561;48.336;14.472;2023-11-19T11:33:38;25.50;50.40
63371;DHT22;72561;48.336;14.472;2023-11-19T11:37:17;25.50;50.40
63371;DHT22;72561;48.336;14.472;2023-11-19T11:40:39;25.50;50.50
63371;DHT22;72561;48.336;14.472;2023-11-19T11:44:02;25.50;50.50
63371;DHT22;72561;48.336;14.472;2023-11-19T11:47:23;25.50;50.40
63371;DHT22;72561;48.336;14.472;2023-11-19T11:50:58;25.50;50.50
63371;DHT22;72561;48.336;14.472;2023-11-19T11:54:26;25.50;50.50
63371;DHT22;72561;48.336;14.472;2023-11-19T11:57:49;25.50;50.50
63371;DHT22;72561;48.336;14.472;2023-11-19T12:01:15;25.50;50.50
63371;DHT22;72561;48.336;14.472;2023-11-19T12:04:36;25.50;50.50
63371;DHT22;72561;48.336;14.472;2023-11-19T12:08:00;25.50;50.50
63371;DHT22;72561;48.336;14.472;2023-11-19T12:11:24;25.50;50.50
63371;DHT22;72561;48.336;14.472;2023-11-19T12:15:07;25.50;50.50
63371;DHT22;72561;48.336;14.472;2023-11-19T12:18:31;25.50;50.50
63371;DHT22;72561;48.336;14.472;2023-11-19T12:21:53;25.50;50.50
63371;DHT22;72561;48.336;14.472;2023-11-19T12:25:14;25.50;50.50
63371;DHT22;72561;48.336;14.472;2023-11-19T12:28:36;25.50;50.50
63371;DHT22;72561;48.336;14.472;2023-11-19T12:31:57;25.50;50.50
63371;DHT22;72561;48.336;14.472;2023-11-19T12:35:19;25.50;50.50
63371;DHT22;72561;48.336;14.472;2023-11-19T12:38:41;25.50;50.50
63371;DHT22;72561;48.336;14.472;2023-11-19T12:42:02;25.50;50.50
63371;DHT22;72561;48.336;14.472;2023-11-19T12:45:24;25.50;50.60
63371;DHT22;72561;48.336;14.472;2023-11-19T12:48:45;25.50;50.50
63371;DHT22;72561;48.336;14.472;2023-11-19T12:52:17;25.50;50.50
63371;DHT22;72561;48.336;14.472;2023-11-19T12:55:38;25.50;50.50
63371;DHT22;72561;48.336;14.472;2023-11-19T12:59:10;25.50;50.50
63371;DHT22;72561;48.336;14.472;2023-11-19T13:02:47;25.50;50.50
63371;DHT22;72561;48.336;14.472;2023-11-19T13:06:11;25.50;50.40
63371;DHT22;72561;48.336;14.472;2023-11-19T13:09:34;25.50;50.50
63371;DHT22;72561;48.336;14.472;2023-11-19T13:13:05;25.50;50.50
63371;DHT22;72561;48.336;14.472;2023-11-19T13:16:28;25.50;50.40
63371;DHT22;72561;48.336;14.472;2023-11-19T13:19:49;25.50;50.50
63371;DHT22;72561;48.336;14.472;2023-11-19T13:23:10;25.50;50.50
63371;DHT22;72561;48.336;14.472;2023-11-19T13:26:33;25.50;50.50
63371;DHT22;72561;48.336;14.472;2023-11-19T13:29:54;25.50;50.50
63371;DHT22;72561;48.336;14.472;2023-11-19T13:33:15;25.50;50.50
63371;DHT22;72561;48.336;14.472;2023-11-19T13:36:36;25.50;50.50
63371;DHT22;72561;48.336;14.472;2023-11-19T13:39:57;25.50;50.60
63371;DHT22;72561;48.336;14.472;2023-11-19T13:43:20;25.50;50.60
63371;DHT22;72561;48.336;14.472;2023-11-19T13:46:41;25.50;50.50
63371;DHT22;72561;48.336;14.472;2023-11-19T13:50:05;25.60;50.60
63371;DHT22;72561;48.336;14.472;2023-11-19T13:53:27;25.50;50.60
63371;DHT22;72561;48.336;14.472;2023-11-19T13:56:48;25.50;50.50
63371;DHT22;72561;48.336;14.472;2023-11-19T14:00:12;25.50;50.60
63371;DHT22;72561;48.336;14.472;2023-11-19T14:03:34;25.50;50.60
63371;DHT22;72561;48.336;14.472;2023-11-19T14:06:55;25.60;50.60
63371;DHT22;72561;48.336;14.472;2023-11-19T14:10:17;25.50;50.60
63371;DHT22;72561;48.336;14.472;2023-11-19T14:16:32;25.60;50.00
63371;DHT22;72561;48.336;14.472;2023-11-19T14:19:53;25.60;50.60
63371;DHT22;72561;48.336;14.472;2023-11-19T14:23:14;25.60;50.70
63371;DHT22;72561;48.336;14.472;2023-11-19T14:26:36;25.50;50.60
63371;DHT22;72561;48.336;14.472;2023-11-19T14:29:57;25.50;50.60
63371;DHT22;72561;48.336;14.472;2023-11-19T14:33:20;25.60;50.60
63371;DHT22;72561;48.336;14.472;2023-11-19T14:36:41;25.60;50.60
63371;DHT22;72561;48.336;14.472;2023-11-19T14:40:03;25.60;50.60
63371;DHT22;72561;48.336;14.472;2023-11-19T14:43:24;25.50;50.50
63371;DHT22;72561;48.336;14.472;2023-11-19T14:46:45;25.60;50.60
63371;DHT22;72561;48.336;14.472;2023-11-19T14:50:09;25.60;50.70
63371;DHT22;72561;48.336;14.472;2023-11-19T14:55:22;25.50;50.00
63371;DHT22;72561;48.336;14.472;2023-11-19T14:58:43;25.60;50.60
63371;DHT22;72561;48.336;14.472;2023-11-19T15:03:42;25.60;50.00
63371;DHT22;72561;48.336;14.472;2023-11-19T15:07:03;25.60;50.60
63371;DHT22;72561;48.336;14.472;2023-11-19T15:10:24;25.60;50.60
63371;DHT22;72561;48.336;14.472;2023-11-19T15:13:45;25.50;50.60
63371;DHT22;72561;48.336;14.472;2023-11-19T15:17:06;25.50;50.50
63371;DHT22;72561;48.336;14.472;2023-11-19T15:20:29;25.50;50.50
63371;DHT22;72561;48.336;14.472;2023-11-19T15:23:50;25.60;50.60
63371;DHT22;72561;48.336;14.472;2023-11-19T15:27:12;25.50;50.50
63371;DHT22;72561;48.336;14.472;2023-11-19T15:30:33;25.50;50.50
63371;DHT22;72561;48.336;14.472;2023-11-19T15:33:55;25.60;50.60
63371;DHT22;72561;48.336;14.472;2023-11-19T15:37:17;25.50;50.50
63371;DHT22;72561;48.336;14.472;2023-11-19T15:40:39;25.50;50.50
63371;DHT22;72561;48.336;14.472;2023-11-19T15:44:00;25.60;50.60
63371;DHT22;72561;48.336;14.472;2023-11-19T15:47:21;25.60;50.60
63371;DHT22;72561;48.336;14.472;2023-11-19T15:50:42;25.60;50.60
63371;DHT22;72561;48.336;14.472;2023-11-19T15:54:05;25.60;50.60
63371;DHT22;72561;48.336;14.472;2023-11-19T15:57:26;25.60;50.60
63371;DHT22;72561;48.336;14.472;2023-11-19T16:02:13;25.60;50.00
63371;DHT22;72561;48.336;14.472;2023-11-19T16:05:34;25.60;50.60
63371;DHT22;72561;48.336;14.472;2023-11-19T16:08:55;25.60;50.60
63371;DHT22;72561;48.336;14.472;2023-11-19T16:12:16;25.60;50.60
63371;DHT22;72561;48.336;14.472;2023-11-19T16:16:29;25.50;49.90
63371;DHT22;72561;48.336;14.472;2023-11-19T16:19:50;25.60;50.50
63371;DHT22;72561;48.336;14.472;2023-11-19T16:23:12;25.50;50.50
63371;DHT22;72561;48.336;14.472;2023-11-19T16:26:33;25.60;50.60
63371;DHT22;72561;48.336;14.472;2023-11-19T16:29:54;25.60;50.50
63371;DHT22;72561;48.336;14.472;2023-11-19T16:33:16;25.50;50.50
63371;DHT22;72561;48.336;14.472;2023-11-19T16:36:37;25.50;50.50
63371;DHT22;72561;48.336;14.472;2023-11-19T16:39:59;25.60;50.70
63371;DHT22;72561;48.336;14.472;2023-11-19T16:43:20;25.50;50.50
63371;DHT22;72561;48.336;14.472;2023-11-19T16:46:41;25.60;50.60
63371;DHT22;72561;48.336;14.472;2023-11-19T16:50:04;25.50;50.50
63371;DHT22;72561;48.336;14.472;2023-11-19T16:53:25;25.60;50.80
63371;DHT22;72561;48.336;14.472;2023-11-19T16:56:47;25.50;50.70
63371;DHT22;72561;48.336;14.472;2023-11-19T17:00:09;25.60;50.80
63371;DHT22;72561;48.336;14.472;2023-11-19T17:03:31;25.50;50.90
63371;DHT22;72561;48.336;14.472;2023-11-19T17:06:56;25.60;51.00
63371;DHT22;72561;48.336;14.472;2023-11-19T17:10:18;25.60;51.00
63371;DHT22;72561;48.336;14.472;2023-11-19T17:13:39;25.50;51.00
63371;DHT22;72561;48.336;14.472;2023-11-19T17:17:00;25.60;51.10
63371;DHT22;72561;48.336;14.472;2023-11-19T17:20:21;25.50;51.00
63371;DHT22;72561;48.336;14.472;2023-11-19T17:24:23;25.60;50.40
63371;DHT22;72561;48.336;14.472;2023-11-19T17:27:44;25.60;51.20
63371;DHT22;72561;48.336;14.472;2023-11-19T17:31:06;25.60;51.10
63371;DHT22;72561;48.336;14.472;2023-11-19T17:34:27;25.60;51.20
63371;DHT22;72561;48.336;14.472;2023-11-19T17:37:48;25.60;51.20
63371;DHT22;72561;48.336;14.472;2023-11-19T17:41:11;25.60;51.30
63371;DHT22;72561;48.336;14.472;2023-11-19T17:44:33;25.60;51.40
63371;DHT22;72561;48.336;14.472;2023-11-19T17:47:54;25.60;51.50
63371;DHT22;72561;48.336;14.472;2023-11-19T17:51:16;25.50;51.30
63371;DHT22;72561;48.336;14.472;2023-11-19T17:54:37;25.60;51.40
63371;DHT22;72561;48.336;14.472;2023-11-19T17:58:00;25.60;51.60
63371;DHT22;72561;48.336;14.472;2023-11-19T18:01:21;25.60;51.60
63371;DHT22;72561;48.336;14.472;2023-11-19T18:04:44;25.60;51.60
63371;DHT22;72561;48.336;14.472;2023-11-19T18:08:06;25.60;51.60
63371;DHT22;72561;48.336;14.472;2023-11-19T18:11:27;25.60;51.60
63371;DHT22;72561;48.336;14.472;2023-11-19T18:14:50;25.60;51.60
63371;DHT22;72561;48.336;14.472;2023-11-19T18:18:11;25.60;51.60
63371;DHT22;72561;48.336;14.472;2023-11-19T18:21:32;25.60;51.60
63371;DHT22;72561;48.336;14.472;2023-11-19T18:24:54;25.60;51.60
63371;DHT22;72561;48.336;14.472;2023-11-19T18:28:20;25.60;51.60
63371;DHT22;72561;48.336;14.472;2023-11-19T18:31:43;25.60;51.60
63371;DHT22;72561;48.336;14.472;2023-11-19T18:35:05;25.60;51.60
63371;DHT22;72561;48.336;14.472;2023-11-19T18:38:27;25.60;51.60
63371;DHT22;72561;48.336;14.472;2023-11-19T18:41:48;25.60;51.60
63371;DHT22;72561;48.336;14.472;2023-11-19T18:45:09;25.60;51.60
63371;DHT22;72561;48.336;14.472;2023-11-19T18:48:32;25.60;51.60
63371;DHT22;72561;48.336;14.472;2023-11-19T18:51:53;25.60;51.60
63371;DHT22;72561;48.336;14.472;2023-11-19T18:55:14;25.60;51.60
63371;DHT22;72561;48.336;14.472;2023-11-19T18:58:35;25.60;51.70
63371;DHT22;72561;48.336;14.472;2023-11-19T19:01:57;25.60;51.60
63371;DHT22;72561;48.336;14.472;2023-11-19T19:08:17;25.60;51.00
63371;DHT22;72561;48.336;14.472;2023-11-19T19:11:38;25.60;51.70
63371;DHT22;72561;48.336;14.472;2023-11-19T19:14:59;25.60;51.60
63371;DHT22;72561;48.336;14.472;2023-11-19T19:18:20;25.60;51.60
63371;DHT22;72561;48.336;14.472;2023-11-19T19:21:42;25.60;51.70
63371;DHT22;72561;48.336;14.472;2023-11-19T19:25:05;25.60;51.70
63371;DHT22;72561;48.336;14.472;2023-11-19T19:28:26;25.60;51.70
63371;DHT22;72561;48.336;14.472;2023-11-19T19:31:47;25.60;51.70
63371;DHT22;72561;48.336;14.472;2023-11-19T19:35:08;25.60;51.70
63371;DHT22;72561;48.336;14.472;2023-11-19T19:38:29;25.60;51.80
63371;DHT22;72561;48.336;14.472;2023-11-19T19:41:52;25.60;51.80
63371;DHT22;72561;48.336;14.472;2023-11-19T19:45:13;25.60;51.60
63371;DHT22;72561;48.336;14.472;2023-11-19T19:48:34;25.60;51.60
63371;DHT22;72561;48.336;14.472;2023-11-19T19:51:56;25.60;51.70
63371;DHT22;72561;48.336;14.472;2023-11-19T19:55:17;25.60;51.70
63371;DHT22;72561;48.336;14.472;2023-11-19T19:58:39;25.60;51.60
63371;DHT22;72561;48.336;14.472;2023-11-19T20:02:00;25.60;51.60
63371;DHT22;72561;48.336;14.472;2023-11-19T20:05:21;25.60;51.70
63371;DHT22;72561;48.336;14.472;2023-11-19T20:08:43;25.60;51.70
63371;DHT22;72561;48.336;14.472;2023-11-19T20:12:05;25.60;51.70
63371;DHT22;72561;48.336;14.472;2023-11-19T20:15:28;25.60;51.60
63371;DHT22;72561;48.336;14.472;2023-11-19T20:18:49;25.60;51.60
63371;DHT22;72561;48.336;14.472;2023-11-19T20:22:10;25.60;51.60
63371;DHT22;72561;48.336;14.472;2023-11-19T20:25:32;25.60;51.60
63371;DHT22;72561;48.336;14.472;2023-11-19T20:28:53;25.60;51.60
63371;DHT22;72561;48.336;14.472;2023-11-19T20:32:15;25.60;51.60
63371;DHT22;72561;48.336;14.472;2023-11-19T20:35:38;25.60;51.70
63371;DHT22;72561;48.336;14.472;2023-11-19T20:38:59;25.60;51.70
63371;DHT22;72561;48.336;14.472;2023-11-19T20:42:22;25.60;51.70
63371;DHT22;72561;48.336;14.472;2023-11-19T20:45:44;25.60;51.60
63371;DHT22;72561;48.336;14.472;2023-11-19T20:49:06;25.60;51.60
63371;DHT22;72561;48.336;14.472;2023-11-19T20:52:27;25.60;51.60
63371;DHT22;72561;48.336;14.472;2023-11-19T21:01:59;25.60;51.00
63371;DHT22;72561;48.336;14.472;2023-11-19T21:05:20;25.60;51.60
63371;DHT22;72561;48.336;14.472;2023-11-19T21:08:41;25.60;51.60
63371;DHT22;72561;48.336;14.472;2023-11-19T21:12:03;25.60;51.60
63371;DHT22;72561;48.336;14.472;2023-11-19T21:15:25;25.60;51.60
63371;DHT22;72561;48.336;14.472;2023-11-19T21:18:47;25.60;51.70
63371;DHT22;72561;48.336;14.472;2023-11-19T21:22:08;25.60;51.70
63371;DHT22;72561;48.336;14.472;2023-11-19T21:25:29;25.60;51.70
63371;DHT22;72561;48.336;14.472;2023-11-19T21:28:51;25.60;51.70
63371;DHT22;72561;48.336;14.472;2023-11-19T21:32:12;25.60;51.70
63371;DHT22;72561;48.336;14.472;2023-11-19T21:35:34;25.60;51.70
63371;DHT22;72561;48.336;14.472;2023-11-19T21:38:55;25.60;51.80
63371;DHT22;72561;48.336;14.472;2023-11-19T21:42:16;25.60;51.80
63371;DHT22;72561;48.336;14.472;2023-11-19T21:45:37;25.60;51.80
63371;DHT22;72561;48.336;14.472;2023-11-19T21:52:21;25.60;51.10